sensor_id;sensor_type;location;lat;lon;timestamp;temperature;humidity
1129;DHT22;553;51.038;7.216;2022-09-01T00:00:08;18.20;85.60
1129;DHT22;553;51.038;7.216;2022-09-01T00:02:36;18.10;85.50
1129;DHT22;553;51.038;7.216;2022-09-01T00:05:04;18.10;85.60
1129;DHT22;553;51.038;7.216;2022-09-01T00:07:33;18.00;85.60
1129;DHT22;553;51.038;7.216;2022-09-01T00:10:03;18.00;85.50
1129;DHT22;553;51.038;7.216;2022-09-01T00:12:30;18.00;85.40
1129;DHT22;553;51.038;7.216;2022-09-01T00:14:57;18.00;85.50
1129;DHT22;553;51.038;7.216;2022-09-01T00:17:25;18.00;85.40
1129;DHT22;553;51.038;7.216;2022-09-01T00:19:51;18.00;85.40
1129;DHT22;553;51.038;7.216;2022-09-01T00:22:18;18.00;85.70
1129;DHT22;553;51.038;7.216;2022-09-01T00:24:45;18.00;85.60
1129;DHT22;553;51.038;7.216;2022-09-01T00:27:12;18.00;85.60
1129;DHT22;553;51.038;7.216;2022-09-01T00:29:38;18.00;85.50
1129;DHT22;553;51.038;7.216;2022-09-01T00:32:09;18.00;85.50
1129;DHT22;553;51.038;7.216;2022-09-01T00:34:36;18.00;86.00
1129;DHT22;553;51.038;7.216;2022-09-01T00:37:02;17.90;86.40
1129;DHT22;553;51.038;7.216;2022-09-01T00:39:30;17.80;86.50
1129;DHT22;553;51.038;7.216;2022-09-01T00:41:57;17.80;86.60
1129;DHT22;553;51.038;7.216;2022-09-01T00:44:25;17.90;86.40
1129;DHT22;553;51.038;7.216;2022-09-01T00:46:57;17.90;86.20
1129;DHT22;553;51.038;7.216;2022-09-01T00:49:44;18.00;85.80
1129;DHT22;553;51.038;7.216;2022-09-01T00:54:57;17.80;86.40
1129;DHT22;553;51.038;7.216;2022-09-01T00:57:26;17.80;86.90
1129;DHT22;553;51.038;7.216;2022-09-01T00:59:59;17.80;86.80
1129;DHT22;553;51.038;7.216;2022-09-01T01:02:27;17.80;86.60
1129;DHT22;553;51.038;7.216;2022-09-01T01:04:54;17.70;86.60
1129;DHT22;553;51.038;7.216;2022-09-01T01:07:26;17.70;86.80
1129;DHT22;553;51.038;7.216;2022-09-01T01:09:54;17.60;86.90
1129;DHT22;553;51.038;7.216;2022-09-01T01:12:21;17.70;86.90
1129;DHT22;553;51.038;7.216;2022-09-01T01:14:49;17.70;86.70
1129;DHT22;553;51.038;7.216;2022-09-01T01:17:19;17.70;86.80
1129;DHT22;553;51.038;7.216;2022-09-01T01:19:55;17.70;86.70
1129;DHT22;553;51.038;7.216;2022-09-01T01:25:50;17.60;86.60
1129;DHT22;553;51.038;7.216;2022-09-01T01:30:55;17.70;86.20
1129;DHT22;553;51.038;7.216;2022-09-01T01:33:27;17.70;86.20
1129;DHT22;553;51.038;7.216;2022-09-01T01:35:56;17.60;86.20
1129;DHT22;553;51.038;7.216;2022-09-01T01:38:25;17.60;86.40
1129;DHT22;553;51.038;7.216;2022-09-01T01:40:53;17.60;86.10
1129;DHT22;553;51.038;7.216;2022-09-01T01:43:23;17.60;86.20
1129;DHT22;553;51.038;7.216;2022-09-01T01:45:52;17.50;86.20
1129;DHT22;553;51.038;7.216;2022-09-01T01:48:24;17.60;85.90
1129;DHT22;553;51.038;7.216;2022-09-01T01:50:52;17.60;85.80
1129;DHT22;553;51.038;7.216;2022-09-01T01:53:21;17.50;85.90
1129;DHT22;553;51.038;7.216;2022-09-01T01:55:49;17.60;86.40
1129;DHT22;553;51.038;7.216;2022-09-01T01:58:17;17.60;86.10
1129;DHT22;553;51.038;7.216;2022-09-01T02:00:48;17.60;86.10
1129;DHT22;553;51.038;7.216;2022-09-01T02:03:25;17.60;85.90
1129;DHT22;553;51.038;7.216;2022-09-01T02:05:54;17.60;85.90
1129;DHT22;553;51.038;7.216;2022-09-01T02:08:22;17.60;85.80
1129;DHT22;553;51.038;7.216;2022-09-01T02:10:53;17.60;85.80
1129;DHT22;553;51.038;7.216;2022-09-01T02:13:22;17.70;85.80
1129;DHT22;553;51.038;7.216;2022-09-01T02:15:53;17.70;85.70
1129;DHT22;553;51.038;7.216;2022-09-01T02:18:27;17.60;85.80
1129;DHT22;553;51.038;7.216;2022-09-01T02:20:57;17.60;85.70
1129;DHT22;553;51.038;7.216;2022-09-01T02:23:24;17.50;85.90
1129;DHT22;553;51.038;7.216;2022-09-01T02:25:55;17.60;85.80
1129;DHT22;553;51.038;7.216;2022-09-01T02:28:44;17.60;85.30
1129;DHT22;553;51.038;7.216;2022-09-01T02:31:19;17.60;84.90
1129;DHT22;553;51.038;7.216;2022-09-01T02:33:46;17.70;84.90
1129;DHT22;553;51.038;7.216;2022-09-01T02:36:15;17.70;84.90
1129;DHT22;553;51.038;7.216;2022-09-01T02:38:44;17.70;85.00
1129;DHT22;553;51.038;7.216;2022-09-01T02:41:19;17.70;84.80
1129;DHT22;553;51.038;7.216;2022-09-01T02:43:49;17.70;84.80
1129;DHT22;553;51.038;7.216;2022-09-01T02:46:16;17.70;84.80
1129;DHT22;553;51.038;7.216;2022-09-01T02:48:44;17.70;84.90
1129;DHT22;553;51.038;7.216;2022-09-01T02:51:15;17.70;84.90
1129;DHT22;553;51.038;7.216;2022-09-01T02:53:43;17.70;85.00
1129;DHT22;553;51.038;7.216;2022-09-01T02:56:15;17.70;85.10
1129;DHT22;553;51.038;7.216;2022-09-01T02:58:45;17.70;85.10
1129;DHT22;553;51.038;7.216;2022-09-01T03:01:18;17.70;84.90
1129;DHT22;553;51.038;7.216;2022-09-01T03:03:49;17.70;85.00
1129;DHT22;553;51.038;7.216;2022-09-01T03:06:18;17.70;85.10
1129;DHT22;553;51.038;7.216;2022-09-01T03:08:46;17.70;84.90
1129;DHT22;553;51.038;7.216;2022-09-01T03:11:13;17.70;85.10
1129;DHT22;553;51.038;7.216;2022-09-01T03:13:41;17.70;85.20
1129;DHT22;553;51.038;7.216;2022-09-01T03:16:09;17.70;85.30
1129;DHT22;553;51.038;7.216;2022-09-01T03:18:37;17.70;85.60
1129;DHT22;553;51.038;7.216;2022-09-01T03:21:07;17.60;86.00
1129;DHT22;553;51.038;7.216;2022-09-01T03:23:34;17.50;86.10
1129;DHT22;553;51.038;7.216;2022-09-01T03:26:02;17.40;86.40
1129;DHT22;553;51.038;7.216;2022-09-01T03:28:30;17.40;86.80
1129;DHT22;553;51.038;7.216;2022-09-01T03:30:58;17.30;87.00
1129;DHT22;553;51.038;7.216;2022-09-01T03:33:27;17.20;87.10
1129;DHT22;553;51.038;7.216;2022-09-01T03:35:55;17.20;87.50
1129;DHT22;553;51.038;7.216;2022-09-01T03:38:23;17.10;87.60
1129;DHT22;553;51.038;7.216;2022-09-01T03:40:54;17.10;87.50
1129;DHT22;553;51.038;7.216;2022-09-01T03:43:24;17.20;87.30
1129;DHT22;553;51.038;7.216;2022-09-01T03:46:01;17.10;87.20
1129;DHT22;553;51.038;7.216;2022-09-01T03:48:29;17.20;87.20
1129;DHT22;553;51.038;7.216;2022-09-01T03:50:58;17.20;87.20
1129;DHT22;553;51.038;7.216;2022-09-01T03:53:31;17.20;87.30
1129;DHT22;553;51.038;7.216;2022-09-01T03:56:01;17.10;87.40
1129;DHT22;553;51.038;7.216;2022-09-01T03:58:31;17.10;87.40
1129;DHT22;553;51.038;7.216;2022-09-01T04:01:00;17.20;87.40
1129;DHT22;553;51.038;7.216;2022-09-01T04:03:31;17.10;87.40
1129;DHT22;553;51.038;7.216;2022-09-01T04:06:01;17.10;87.70
1129;DHT22;553;51.038;7.216;2022-09-01T04:08:30;17.00;87.70
1129;DHT22;553;51.038;7.216;2022-09-01T04:11:03;17.00;87.90
1129;DHT22;553;51.038;7.216;2022-09-01T04:13:38;17.00;87.90
1129;DHT22;553;51.038;7.216;2022-09-01T04:16:05;17.00;88.10
1129;DHT22;553;51.038;7.216;2022-09-01T04:18:55;16.90;88.50
1129;DHT22;553;51.038;7.216;2022-09-01T04:21:23;16.80;88.50
1129;DHT22;553;51.038;7.216;2022-09-01T04:23:51;16.80;88.60
1129;DHT22;553;51.038;7.216;2022-09-01T04:26:17;16.90;88.50
1129;DHT22;553;51.038;7.216;2022-09-01T04:28:48;16.90;88.50
1129;DHT22;553;51.038;7.216;2022-09-01T04:31:18;16.90;88.40
1129;DHT22;553;51.038;7.216;2022-09-01T04:33:49;16.90;88.50
1129;DHT22;553;51.038;7.216;2022-09-01T04:36:28;16.90;88.40
1129;DHT22;553;51.038;7.216;2022-09-01T04:38:59;16.80;88.50
1129;DHT22;553;51.038;7.216;2022-09-01T04:41:29;16.80;88.60
1129;DHT22;553;51.038;7.216;2022-09-01T04:44:03;16.70;89.00
1129;DHT22;553;51.038;7.216;2022-09-01T04:46:37;16.60;89.30
1129;DHT22;553;51.038;7.216;2022-09-01T04:49:06;16.50;89.60
1129;DHT22;553;51.038;7.216;2022-09-01T04:51:40;16.50;89.80
1129;DHT22;553;51.038;7.216;2022-09-01T04:54:08;16.50;89.90
1129;DHT22;553;51.038;7.216;2022-09-01T04:56:38;16.40;90.10
1129;DHT22;553;51.038;7.216;2022-09-01T04:59:10;16.30;90.30
1129;DHT22;553;51.038;7.216;2022-09-01T05:01:39;16.30;90.20
1129;DHT22;553;51.038;7.216;2022-09-01T05:04:13;16.30;90.20
1129;DHT22;553;51.038;7.216;2022-09-01T05:06:46;16.30;90.40
1129;DHT22;553;51.038;7.216;2022-09-01T05:09:17;16.30;90.30
1129;DHT22;553;51.038;7.216;2022-09-01T05:11:52;16.30;90.40
1129;DHT22;553;51.038;7.216;2022-09-01T05:14:25;16.20;90.40
1129;DHT22;553;51.038;7.216;2022-09-01T05:16:56;16.20;90.40
1129;DHT22;553;51.038;7.216;2022-09-01T05:19:26;16.20;90.30
1129;DHT22;553;51.038;7.216;2022-09-01T05:21:57;16.20;90.50
1129;DHT22;553;51.038;7.216;2022-09-01T05:24:25;16.20;90.10
1129;DHT22;553;51.038;7.216;2022-09-01T05:26:58;16.20;89.90
1129;DHT22;553;51.038;7.216;2022-09-01T05:29:27;16.30;89.90
1129;DHT22;553;51.038;7.216;2022-09-01T05:31:56;16.30;89.80
1129;DHT22;553;51.038;7.216;2022-09-01T05:34:25;16.30;89.80
1129;DHT22;553;51.038;7.216;2022-09-01T05:36:56;16.30;89.80
1129;DHT22;553;51.038;7.216;2022-09-01T05:39:25;16.30;89.60
1129;DHT22;553;51.038;7.216;2022-09-01T05:41:52;16.30;89.60
1129;DHT22;553;51.038;7.216;2022-09-01T05:44:20;16.40;89.60
1129;DHT22;553;51.038;7.216;2022-09-01T05:46:49;16.40;89.30
1129;DHT22;553;51.038;7.216;2022-09-01T05:49:17;16.40;89.30
1129;DHT22;553;51.038;7.216;2022-09-01T05:51:48;16.50;88.90
1129;DHT22;553;51.038;7.216;2022-09-01T05:54:22;16.60;88.80
1129;DHT22;553;51.038;7.216;2022-09-01T05:56:55;16.80;88.80
1129;DHT22;553;51.038;7.216;2022-09-01T05:59:44;16.90;87.70
1129;DHT22;553;51.038;7.216;2022-09-01T06:02:21;17.10;87.10
1129;DHT22;553;51.038;7.216;2022-09-01T06:04:49;17.40;86.00
1129;DHT22;553;51.038;7.216;2022-09-01T06:07:22;17.70;85.20
1129;DHT22;553;51.038;7.216;2022-09-01T06:09:55;18.00;84.80
1129;DHT22;553;51.038;7.216;2022-09-01T06:12:23;18.30;83.40
1129;DHT22;553;51.038;7.216;2022-09-01T06:14:52;18.50;82.50
1129;DHT22;553;51.038;7.216;2022-09-01T06:17:21;18.70;82.30
1129;DHT22;553;51.038;7.216;2022-09-01T06:19:54;18.90;81.40
1129;DHT22;553;51.038;7.216;2022-09-01T06:22:22;19.10;81.20
1129;DHT22;553;51.038;7.216;2022-09-01T06:24:50;19.20;80.80
1129;DHT22;553;51.038;7.216;2022-09-01T06:27:27;19.30;80.10
1129;DHT22;553;51.038;7.216;2022-09-01T06:29:54;19.40;79.90
1129;DHT22;553;51.038;7.216;2022-09-01T06:32:23;19.50;79.50
1129;DHT22;553;51.038;7.216;2022-09-01T06:34:52;19.60;79.60
1129;DHT22;553;51.038;7.216;2022-09-01T06:37:19;19.70;78.90
1129;DHT22;553;51.038;7.216;2022-09-01T06:39:51;19.70;78.80
1129;DHT22;553;51.038;7.216;2022-09-01T06:42:18;19.70;78.80
1129;DHT22;553;51.038;7.216;2022-09-01T06:44:50;19.80;79.10
1129;DHT22;553;51.038;7.216;2022-09-01T06:47:18;19.70;79.20
1129;DHT22;553;51.038;7.216;2022-09-01T06:49:45;19.80;78.90
1129;DHT22;553;51.038;7.216;2022-09-01T06:52:18;19.90;79.10
1129;DHT22;553;51.038;7.216;2022-09-01T06:54:50;19.90;78.30
1129;DHT22;553;51.038;7.216;2022-09-01T06:57:20;19.90;78.40
1129;DHT22;553;51.038;7.216;2022-09-01T07:00:13;20.10;78.70
1129;DHT22;553;51.038;7.216;2022-09-01T07:02:53;20.10;78.00
1129;DHT22;553;51.038;7.216;2022-09-01T07:05:41;20.20;77.80
1129;DHT22;553;51.038;7.216;2022-09-01T07:08:46;20.40;77.60
1129;DHT22;553;51.038;7.216;2022-09-01T07:11:35;20.50;77.40
1129;DHT22;553;51.038;7.216;2022-09-01T07:14:24;20.70;76.40
1129;DHT22;553;51.038;7.216;2022-09-01T07:16:51;21.00;76.00
1129;DHT22;553;51.038;7.216;2022-09-01T07:19:37;21.20;75.30
1129;DHT22;553;51.038;7.216;2022-09-01T07:22:20;21.50;74.70
1129;DHT22;553;51.038;7.216;2022-09-01T07:25:07;21.60;72.80
1129;DHT22;553;51.038;7.216;2022-09-01T07:27:53;21.90;73.10
1129;DHT22;553;51.038;7.216;2022-09-01T07:30:26;22.10;72.60
1129;DHT22;553;51.038;7.216;2022-09-01T07:32:53;22.40;71.80
1129;DHT22;553;51.038;7.216;2022-09-01T07:35:22;22.50;71.10
1129;DHT22;553;51.038;7.216;2022-09-01T07:37:51;22.80;70.90
1129;DHT22;553;51.038;7.216;2022-09-01T07:40:41;23.00;70.60
1129;DHT22;553;51.038;7.216;2022-09-01T07:43:47;23.40;70.50
1129;DHT22;553;51.038;7.216;2022-09-01T07:46:35;23.70;68.70
1129;DHT22;553;51.038;7.216;2022-09-01T07:49:04;23.60;68.70
1129;DHT22;553;51.038;7.216;2022-09-01T07:51:51;23.70;69.10
1129;DHT22;553;51.038;7.216;2022-09-01T07:54:19;23.80;68.50
1129;DHT22;553;51.038;7.216;2022-09-01T07:56:49;23.80;67.80
1129;DHT22;553;51.038;7.216;2022-09-01T07:59:16;23.80;68.10
1129;DHT22;553;51.038;7.216;2022-09-01T08:01:49;23.80;67.20
1129;DHT22;553;51.038;7.216;2022-09-01T08:04:18;24.00;68.30
1129;DHT22;553;51.038;7.216;2022-09-01T08:06:49;24.40;66.40
1129;DHT22;553;51.038;7.216;2022-09-01T08:09:16;24.40;66.50
1129;DHT22;553;51.038;7.216;2022-09-01T08:12:04;24.60;64.90
1129;DHT22;553;51.038;7.216;2022-09-01T08:14:37;25.00;65.40
1129;DHT22;553;51.038;7.216;2022-09-01T08:17:04;25.30;64.30
1129;DHT22;553;51.038;7.216;2022-09-01T08:19:51;25.30;63.90
1129;DHT22;553;51.038;7.216;2022-09-01T08:22:31;25.40;64.00
1129;DHT22;553;51.038;7.216;2022-09-01T08:25:08;25.50;62.70
1129;DHT22;553;51.038;7.216;2022-09-01T08:27:36;26.00;63.50
1129;DHT22;553;51.038;7.216;2022-09-01T08:30:07;26.20;61.50
1129;DHT22;553;51.038;7.216;2022-09-01T08:32:36;26.00;61.50
1129;DHT22;553;51.038;7.216;2022-09-01T08:35:04;26.00;60.90
1129;DHT22;553;51.038;7.216;2022-09-01T08:37:30;26.20;61.50
1129;DHT22;553;51.038;7.216;2022-09-01T08:39:57;26.40;59.50
1129;DHT22;553;51.038;7.216;2022-09-01T08:47:45;26.30;57.80
1129;DHT22;553;51.038;7.216;2022-09-01T08:50:33;26.20;55.90
1129;DHT22;553;51.038;7.216;2022-09-01T08:55:55;25.90;58.20
1129;DHT22;553;51.038;7.216;2022-09-01T08:58:25;25.90;57.40
1129;DHT22;553;51.038;7.216;2022-09-01T09:01:08;25.90;57.30
1129;DHT22;553;51.038;7.216;2022-09-01T09:03:46;25.70;57.50
1129;DHT22;553;51.038;7.216;2022-09-01T09:09:18;26.00;57.40
1129;DHT22;553;51.038;7.216;2022-09-01T09:12:21;25.70;58.50
1129;DHT22;553;51.038;7.216;2022-09-01T09:17:32;26.00;58.40
1129;DHT22;553;51.038;7.216;2022-09-01T09:20:02;26.40;58.20
1129;DHT22;553;51.038;7.216;2022-09-01T09:22:29;26.30;58.70
1129;DHT22;553;51.038;7.216;2022-09-01T09:25:09;26.20;59.00
1129;DHT22;553;51.038;7.216;2022-09-01T09:27:42;26.30;59.70
1129;DHT22;553;51.038;7.216;2022-09-01T09:30:13;26.10;59.80
1129;DHT22;553;51.038;7.216;2022-09-01T09:32:55;26.10;60.40
1129;DHT22;553;51.038;7.216;2022-09-01T09:35:45;26.30;59.80
1129;DHT22;553;51.038;7.216;2022-09-01T09:41:07;26.30;59.70
1129;DHT22;553;51.038;7.216;2022-09-01T09:43:56;26.30;58.90
1129;DHT22;553;51.038;7.216;2022-09-01T09:49:17;26.80;58.90
1129;DHT22;553;51.038;7.216;2022-09-01T09:54:37;26.40;59.10
1129;DHT22;553;51.038;7.216;2022-09-01T10:02:38;26.50;59.60
1129;DHT22;553;51.038;7.216;2022-09-01T10:05:44;26.90;59.40
1129;DHT22;553;51.038;7.216;2022-09-01T10:08:37;26.60;58.80
1129;DHT22;553;51.038;7.216;2022-09-01T10:14:03;25.80;60.50
1129;DHT22;553;51.038;7.216;2022-09-01T10:16:31;25.90;60.70
1129;DHT22;553;51.038;7.216;2022-09-01T10:19:01;26.10;60.10
1129;DHT22;553;51.038;7.216;2022-09-01T10:21:36;26.00;60.00
1129;DHT22;553;51.038;7.216;2022-09-01T10:24:15;26.10;61.00
1129;DHT22;553;51.038;7.216;2022-09-01T10:26:50;26.20;60.60
1129;DHT22;553;51.038;7.216;2022-09-01T10:29:33;26.00;60.00
1129;DHT22;553;51.038;7.216;2022-09-01T10:32:20;25.70;60.80
1129;DHT22;553;51.038;7.216;2022-09-01T10:35:02;25.60;60.90
1129;DHT22;553;51.038;7.216;2022-09-01T10:37:30;25.80;60.80
1129;DHT22;553;51.038;7.216;2022-09-01T10:40:13;25.80;60.90
1129;DHT22;553;51.038;7.216;2022-09-01T10:42:48;25.80;60.50
1129;DHT22;553;51.038;7.216;2022-09-01T10:45:35;25.80;60.70
1129;DHT22;553;51.038;7.216;2022-09-01T10:48:25;25.50;60.70
1129;DHT22;553;51.038;7.216;2022-09-01T10:53:49;25.40;62.20
1129;DHT22;553;51.038;7.216;2022-09-01T10:56:48;25.70;60.90
1129;DHT22;553;51.038;7.216;2022-09-01T10:59:27;25.90;60.80
1129;DHT22;553;51.038;7.216;2022-09-01T11:02:09;26.10;60.70
1129;DHT22;553;51.038;7.216;2022-09-01T11:13:35;26.00;60.50
1129;DHT22;553;51.038;7.216;2022-09-01T11:19:26;25.90;60.70
1129;DHT22;553;51.038;7.216;2022-09-01T11:24:50;25.80;60.80
1129;DHT22;553;51.038;7.216;2022-09-01T11:30:36;26.30;59.90
1129;DHT22;553;51.038;7.216;2022-09-01T11:36:11;26.40;59.70
1129;DHT22;553;51.038;7.216;2022-09-01T11:38:53;26.40;60.30
1129;DHT22;553;51.038;7.216;2022-09-01T11:41:33;26.50;60.40
1129;DHT22;553;51.038;7.216;2022-09-01T11:44:06;26.60;60.50
1129;DHT22;553;51.038;7.216;2022-09-01T11:46:37;26.50;60.00
1129;DHT22;553;51.038;7.216;2022-09-01T11:49:22;26.60;60.30
1129;DHT22;553;51.038;7.216;2022-09-01T11:51:51;26.80;58.80
1129;DHT22;553;51.038;7.216;2022-09-01T11:54:18;26.90;58.30
1129;DHT22;553;51.038;7.216;2022-09-01T11:56:44;27.10;58.90
1129;DHT22;553;51.038;7.216;2022-09-01T11:59:11;26.90;58.40
1129;DHT22;553;51.038;7.216;2022-09-01T12:01:39;26.60;59.00
1129;DHT22;553;51.038;7.216;2022-09-01T12:04:24;26.50;59.70
1129;DHT22;553;51.038;7.216;2022-09-01T12:06:59;26.40;60.30
1129;DHT22;553;51.038;7.216;2022-09-01T12:09:37;26.30;60.20
1129;DHT22;553;51.038;7.216;2022-09-01T12:12:06;26.10;59.70
1129;DHT22;553;51.038;7.216;2022-09-01T12:14:33;25.70;60.70
1129;DHT22;553;51.038;7.216;2022-09-01T12:17:20;25.80;60.90
1129;DHT22;553;51.038;7.216;2022-09-01T12:19:47;25.90;60.50
1129;DHT22;553;51.038;7.216;2022-09-01T12:22:18;26.00;59.40
1129;DHT22;553;51.038;7.216;2022-09-01T12:24:53;26.10;59.30
1129;DHT22;553;51.038;7.216;2022-09-01T12:27:20;26.10;59.50
1129;DHT22;553;51.038;7.216;2022-09-01T12:29:50;26.10;60.40
1129;DHT22;553;51.038;7.216;2022-09-01T12:32:18;26.20;60.20
1129;DHT22;553;51.038;7.216;2022-09-01T12:35:13;26.10;59.90
1129;DHT22;553;51.038;7.216;2022-09-01T12:37:37;26.00;60.00
1129;DHT22;553;51.038;7.216;2022-09-01T12:40:04;25.80;60.50
1129;DHT22;553;51.038;7.216;2022-09-01T12:42:33;25.70;61.10
1129;DHT22;553;51.038;7.216;2022-09-01T12:45:09;25.90;61.00
1129;DHT22;553;51.038;7.216;2022-09-01T12:50:08;26.00;60.30
1129;DHT22;553;51.038;7.216;2022-09-01T12:52:57;26.00;59.70
1129;DHT22;553;51.038;7.216;2022-09-01T12:55:26;26.00;61.00
1129;DHT22;553;51.038;7.216;2022-09-01T12:58:20;25.90;60.50
1129;DHT22;553;51.038;7.216;2022-09-01T13:00:56;25.80;60.60
1129;DHT22;553;51.038;7.216;2022-09-01T13:03:24;25.70;60.10
1129;DHT22;553;51.038;7.216;2022-09-01T13:05:54;25.80;60.40
1129;DHT22;553;51.038;7.216;2022-09-01T13:08:41;25.80;60.50
1129;DHT22;553;51.038;7.216;2022-09-01T13:11:12;25.80;60.50
1129;DHT22;553;51.038;7.216;2022-09-01T13:13:40;25.70;60.50
1129;DHT22;553;51.038;7.216;2022-09-01T13:16:08;25.60;61.10
1129;DHT22;553;51.038;7.216;2022-09-01T13:18:41;25.70;61.10
1129;DHT22;553;51.038;7.216;2022-09-01T13:21:29;25.60;60.90
1129;DHT22;553;51.038;7.216;2022-09-01T13:23:56;25.60;61.50
1129;DHT22;553;51.038;7.216;2022-09-01T13:26:23;25.60;61.30
1129;DHT22;553;51.038;7.216;2022-09-01T13:28:49;25.60;61.50
1129;DHT22;553;51.038;7.216;2022-09-01T13:31:17;25.60;61.50
1129;DHT22;553;51.038;7.216;2022-09-01T13:34:01;25.60;61.20
1129;DHT22;553;51.038;7.216;2022-09-01T13:36:36;25.60;61.00
1129;DHT22;553;51.038;7.216;2022-09-01T13:39:17;25.70;60.80
1129;DHT22;553;51.038;7.216;2022-09-01T13:41:44;25.70;60.20
1129;DHT22;553;51.038;7.216;2022-09-01T13:44:12;25.50;60.60
1129;DHT22;553;51.038;7.216;2022-09-01T13:46:39;25.50;60.90
1129;DHT22;553;51.038;7.216;2022-09-01T13:49:27;25.50;61.40
1129;DHT22;553;51.038;7.216;2022-09-01T13:52:13;25.40;60.60
1129;DHT22;553;51.038;7.216;2022-09-01T13:54:40;25.40;61.20
1129;DHT22;553;51.038;7.216;2022-09-01T13:57:10;25.30;61.30
1129;DHT22;553;51.038;7.216;2022-09-01T13:59:37;25.30;61.00
1129;DHT22;553;51.038;7.216;2022-09-01T14:02:04;25.30;61.10
1129;DHT22;553;51.038;7.216;2022-09-01T14:04:31;25.20;60.40
1129;DHT22;553;51.038;7.216;2022-09-01T14:06:58;25.30;60.80
1129;DHT22;553;51.038;7.216;2022-09-01T14:09:25;25.30;60.40
1129;DHT22;553;51.038;7.216;2022-09-01T14:11:52;25.40;60.00
1129;DHT22;553;51.038;7.216;2022-09-01T14:14:19;25.30;60.20
1129;DHT22;553;51.038;7.216;2022-09-01T14:16:46;25.40;59.90
1129;DHT22;553;51.038;7.216;2022-09-01T14:19:13;25.40;59.10
1129;DHT22;553;51.038;7.216;2022-09-01T14:21:41;25.30;59.40
1129;DHT22;553;51.038;7.216;2022-09-01T14:24:08;25.30;59.30
1129;DHT22;553;51.038;7.216;2022-09-01T14:26:34;25.30;58.70
1129;DHT22;553;51.038;7.216;2022-09-01T14:29:01;25.20;58.80
1129;DHT22;553;51.038;7.216;2022-09-01T14:31:28;25.20;58.40
1129;DHT22;553;51.038;7.216;2022-09-01T14:33:55;25.30;58.90
1129;DHT22;553;51.038;7.216;2022-09-01T14:36:24;25.30;59.50
1129;DHT22;553;51.038;7.216;2022-09-01T14:38:52;25.30;59.60
1129;DHT22;553;51.038;7.216;2022-09-01T14:41:21;25.40;59.50
1129;DHT22;553;51.038;7.216;2022-09-01T14:43:53;25.50;58.90
1129;DHT22;553;51.038;7.216;2022-09-01T14:46:29;25.60;58.50
1129;DHT22;553;51.038;7.216;2022-09-01T14:48:56;25.60;58.20
1129;DHT22;553;51.038;7.216;2022-09-01T14:51:25;25.70;58.10
1129;DHT22;553;51.038;7.216;2022-09-01T14:54:12;25.70;57.00
1129;DHT22;553;51.038;7.216;2022-09-01T14:56:39;25.70;57.30
1129;DHT22;553;51.038;7.216;2022-09-01T14:59:06;25.50;57.60
1129;DHT22;553;51.038;7.216;2022-09-01T15:01:34;25.50;58.20
1129;DHT22;553;51.038;7.216;2022-09-01T15:04:01;25.50;58.10
1129;DHT22;553;51.038;7.216;2022-09-01T15:06:28;25.50;57.70
1129;DHT22;553;51.038;7.216;2022-09-01T15:08:54;25.60;57.50
1129;DHT22;553;51.038;7.216;2022-09-01T15:11:21;25.60;57.30
1129;DHT22;553;51.038;7.216;2022-09-01T15:13:48;25.60;56.80
1129;DHT22;553;51.038;7.216;2022-09-01T15:16:20;25.70;57.90
1129;DHT22;553;51.038;7.216;2022-09-01T15:18:47;25.80;56.60
1129;DHT22;553;51.038;7.216;2022-09-01T15:21:32;25.90;56.90
1129;DHT22;553;51.038;7.216;2022-09-01T15:24:00;25.90;56.40
1129;DHT22;553;51.038;7.216;2022-09-01T15:26:28;25.90;55.90
1129;DHT22;553;51.038;7.216;2022-09-01T15:28:55;25.90;56.10
1129;DHT22;553;51.038;7.216;2022-09-01T15:31:25;25.90;56.60
1129;DHT22;553;51.038;7.216;2022-09-01T15:34:00;25.90;56.80
1129;DHT22;553;51.038;7.216;2022-09-01T15:36:29;25.80;57.30
1129;DHT22;553;51.038;7.216;2022-09-01T15:38:56;25.90;57.20
1129;DHT22;553;51.038;7.216;2022-09-01T15:41:27;25.80;56.50
1129;DHT22;553;51.038;7.216;2022-09-01T15:43:57;25.70;57.20
1129;DHT22;553;51.038;7.216;2022-09-01T15:46:24;25.70;57.40
1129;DHT22;553;51.038;7.216;2022-09-01T15:48:59;25.60;56.50
1129;DHT22;553;51.038;7.216;2022-09-01T15:51:35;25.70;56.80
1129;DHT22;553;51.038;7.216;2022-09-01T15:54:09;25.80;57.30
1129;DHT22;553;51.038;7.216;2022-09-01T15:56:36;25.90;56.40
1129;DHT22;553;51.038;7.216;2022-09-01T15:59:04;26.00;55.90
1129;DHT22;553;51.038;7.216;2022-09-01T16:01:33;26.10;55.60
1129;DHT22;553;51.038;7.216;2022-09-01T16:04:01;26.10;55.10
1129;DHT22;553;51.038;7.216;2022-09-01T16:06:30;26.10;55.10
1129;DHT22;553;51.038;7.216;2022-09-01T16:08:57;26.10;55.40
1129;DHT22;553;51.038;7.216;2022-09-01T16:11:24;26.10;54.70
1129;DHT22;553;51.038;7.216;2022-09-01T16:13:52;26.10;55.30
1129;DHT22;553;51.038;7.216;2022-09-01T16:19:16;26.10;55.00
1129;DHT22;553;51.038;7.216;2022-09-01T16:24:40;25.90;55.30
1129;DHT22;553;51.038;7.216;2022-09-01T16:27:09;25.90;55.30
1129;DHT22;553;51.038;7.216;2022-09-01T16:32:11;25.90;55.80
1129;DHT22;553;51.038;7.216;2022-09-01T16:34:40;25.80;55.90
1129;DHT22;553;51.038;7.216;2022-09-01T16:37:21;25.70;56.30
1129;DHT22;553;51.038;7.216;2022-09-01T16:42:39;25.50;56.50
1129;DHT22;553;51.038;7.216;2022-09-01T16:51:17;25.20;56.90
1129;DHT22;553;51.038;7.216;2022-09-01T16:53:53;25.20;57.20
1129;DHT22;553;51.038;7.216;2022-09-01T16:56:31;25.10;56.80
1129;DHT22;553;51.038;7.216;2022-09-01T17:07:37;24.90;57.20
1129;DHT22;553;51.038;7.216;2022-09-01T17:10:21;25.00;57.10
1129;DHT22;553;51.038;7.216;2022-09-01T17:12:53;24.90;57.40
1129;DHT22;553;51.038;7.216;2022-09-01T17:20:53;24.90;58.50
1129;DHT22;553;51.038;7.216;2022-09-01T17:23:26;24.90;57.90
1129;DHT22;553;51.038;7.216;2022-09-01T17:25:58;24.90;57.90
1129;DHT22;553;51.038;7.216;2022-09-01T17:28:41;24.90;61.90
1129;DHT22;553;51.038;7.216;2022-09-01T17:45:25;24.40;58.00
1129;DHT22;553;51.038;7.216;2022-09-01T17:48:01;24.40;58.30
1129;DHT22;553;51.038;7.216;2022-09-01T17:53:26;24.30;58.90
1129;DHT22;553;51.038;7.216;2022-09-01T17:56:24;24.30;59.70
1129;DHT22;553;51.038;7.216;2022-09-01T18:01:29;24.30;62.60
1129;DHT22;553;51.038;7.216;2022-09-01T18:04:25;24.20;63.10
1129;DHT22;553;51.038;7.216;2022-09-01T18:07:03;24.10;63.40
1129;DHT22;553;51.038;7.216;2022-09-01T18:09:36;23.90;61.60
1129;DHT22;553;51.038;7.216;2022-09-01T18:12:09;23.80;61.60
1129;DHT22;553;51.038;7.216;2022-09-01T18:14:57;23.70;62.40
1129;DHT22;553;51.038;7.216;2022-09-01T18:17:46;23.60;61.70
1129;DHT22;553;51.038;7.216;2022-09-01T18:20:24;23.50;64.70
1129;DHT22;553;51.038;7.216;2022-09-01T18:23:18;23.40;65.40
1129;DHT22;553;51.038;7.216;2022-09-01T18:25:54;23.30;65.30
1129;DHT22;553;51.038;7.216;2022-09-01T18:28:23;23.20;65.90
1129;DHT22;553;51.038;7.216;2022-09-01T18:31:06;23.10;66.70
1129;DHT22;553;51.038;7.216;2022-09-01T18:33:49;23.00;66.90
1129;DHT22;553;51.038;7.216;2022-09-01T18:41:54;22.60;67.20
1129;DHT22;553;51.038;7.216;2022-09-01T18:47:03;22.30;67.80
1129;DHT22;553;51.038;7.216;2022-09-01T18:49:52;22.20;68.40
1129;DHT22;553;51.038;7.216;2022-09-01T18:52:36;22.00;68.70
1129;DHT22;553;51.038;7.216;2022-09-01T18:55:24;21.90;69.00
1129;DHT22;553;51.038;7.216;2022-09-01T18:57:59;21.80;69.10